sensor_id;sensor_type;location;lat;lon;timestamp;pressure;altitude;pressure_sealevel;temperature;humidity
6395;BME280;3230;42.588;23.358;2023-06-01T00:01:31;91239.59;;;11.91;100.00
6395;BME280;3230;42.588;23.358;2023-06-01T00:04:03;91243.91;;;11.81;100.00
6395;BME280;3230;42.588;23.358;2023-06-01T00:06:29;91237.09;;;11.80;100.00
6395;BME280;3230;42.588;23.358;2023-06-01T00:08:57;91229.16;;;11.86;100.00
6395;BME280;3230;42.588;23.358;2023-06-01T00:11:23;91237.47;;;11.63;100.00
6395;BME280;3230;42.588;23.358;2023-06-01T00:13:51;91235.28;;;11.76;100.00
6395;BME280;3230;42.588;23.358;2023-06-01T00:16:16;91230.31;;;11.69;100.00
6395;BME280;3230;42.588;23.358;2023-06-01T00:18:42;91234.03;;;11.68;100.00
6395;BME280;3230;42.588;23.358;2023-06-01T00:21:08;91229.50;;;11.74;100.00
6395;BME280;3230;42.588;23.358;2023-06-01T00:23:33;91226.88;;;11.74;100.00
6395;BME280;3230;42.588;23.358;2023-06-01T00:26:02;91233.72;;;11.75;100.00
6395;BME280;3230;42.588;23.358;2023-06-01T00:28:28;91233.72;;;11.75;100.00
6395;BME280;3230;42.588;23.358;2023-06-01T00:30:53;91233.44;;;11.76;100.00
6395;BME280;3230;42.588;23.358;2023-06-01T00:33:20;91230.56;;;11.73;100.00
6395;BME280;3230;42.588;23.358;2023-06-01T00:35:45;91234.50;;;11.75;100.00
6395;BME280;3230;42.588;23.358;2023-06-01T00:38:11;91227.94;;;11.73;100.00
6395;BME280;3230;42.588;23.358;2023-06-01T00:40:37;91229.31;;;11.65;100.00
6395;BME280;3230;42.588;23.358;2023-06-01T00:43:02;91230.84;;;11.71;100.00
6395;BME280;3230;42.588;23.358;2023-06-01T00:45:27;91223.50;;;11.73;100.00
6395;BME280;3230;42.588;23.358;2023-06-01T00:47:53;91222.91;;;11.76;100.00
6395;BME280;3230;42.588;23.358;2023-06-01T00:50:19;91227.91;;;11.78;100.00
6395;BME280;3230;42.588;23.358;2023-06-01T00:52:46;91225.88;;;11.70;100.00
6395;BME280;3230;42.588;23.358;2023-06-01T00:55:13;91226.47;;;11.61;100.00
6395;BME280;3230;42.588;23.358;2023-06-01T00:57:40;91233.56;;;11.61;100.00
6395;BME280;3230;42.588;23.358;2023-06-01T01:00:08;91226.19;;;11.63;100.00
6395;BME280;3230;42.588;23.358;2023-06-01T01:02:39;91230.41;;;11.59;100.00
6395;BME280;3230;42.588;23.358;2023-06-01T01:05:09;91222.84;;;11.52;100.00
6395;BME280;3230;42.588;23.358;2023-06-01T01:07:54;91223.09;;;11.56;100.00
6395;BME280;3230;42.588;23.358;2023-06-01T01:16:26;91216.25;;;11.60;100.00
6395;BME280;3230;42.588;23.358;2023-06-01T01:18:52;91219.38;;;11.62;100.00
6395;BME280;3230;42.588;23.358;2023-06-01T01:21:21;91213.66;;;11.55;100.00
6395;BME280;3230;42.588;23.358;2023-06-01T01:26:56;91227.31;;;11.51;100.00
6395;BME280;3230;42.588;23.358;2023-06-01T01:29:23;91223.38;;;11.54;100.00
6395;BME280;3230;42.588;23.358;2023-06-01T01:31:50;91219.66;;;11.60;100.00
6395;BME280;3230;42.588;23.358;2023-06-01T01:34:18;91232.53;;;11.57;100.00
6395;BME280;3230;42.588;23.358;2023-06-01T01:36:44;91227.56;;;11.55;100.00
6395;BME280;3230;42.588;23.358;2023-06-01T01:39:10;91234.91;;;11.53;100.00
6395;BME280;3230;42.588;23.358;2023-06-01T01:41:35;91234.63;;;11.60;100.00
6395;BME280;3230;42.588;23.358;2023-06-01T01:44:01;91233.31;;;11.57;100.00
6395;BME280;3230;42.588;23.358;2023-06-01T01:46:29;91232.03;;;11.55;100.00
6395;BME280;3230;42.588;23.358;2023-06-01T01:49:21;91231.00;;;11.50;100.00
6395;BME280;3230;42.588;23.358;2023-06-01T01:52:05;91233.44;;;11.42;100.00
6395;BME280;3230;42.588;23.358;2023-06-01T01:54:37;91233.94;;;11.44;100.00
6395;BME280;3230;42.588;23.358;2023-06-01T01:57:05;91237.06;;;11.46;100.00
6395;BME280;3230;42.588;23.358;2023-06-01T01:59:32;91233.72;;;11.40;100.00
6395;BME280;3230;42.588;23.358;2023-06-01T02:01:58;91229.78;;;11.38;100.00
6395;BME280;3230;42.588;23.358;2023-06-01T02:04:23;91220.97;;;11.23;100.00
6395;BME280;3230;42.588;23.358;2023-06-01T02:06:49;91236.75;;;11.18;100.00
6395;BME280;3230;42.588;23.358;2023-06-01T02:09:14;91239.63;;;11.16;100.00
6395;BME280;3230;42.588;23.358;2023-06-01T02:11:40;91241.75;;;11.09;100.00
6395;BME280;3230;42.588;23.358;2023-06-01T02:14:05;91241.22;;;11.12;100.00
6395;BME280;3230;42.588;23.358;2023-06-01T02:16:31;91243.88;;;11.07;100.00
6395;BME280;3230;42.588;23.358;2023-06-01T02:18:56;91234.94;;;11.13;100.00
6395;BME280;3230;42.588;23.358;2023-06-01T02:21:24;91243.00;;;11.22;100.00
6395;BME280;3230;42.588;23.358;2023-06-01T02:23:51;91237.50;;;11.18;100.00
6395;BME280;3230;42.588;23.358;2023-06-01T02:26:17;91234.41;;;11.11;100.00
6395;BME280;3230;42.588;23.358;2023-06-01T02:28:43;91247.53;;;11.11;100.00
6395;BME280;3230;42.588;23.358;2023-06-01T02:31:09;91231.25;;;11.14;100.00
6395;BME280;3230;42.588;23.358;2023-06-01T02:33:35;91238.81;;;11.21;100.00
6395;BME280;3230;42.588;23.358;2023-06-01T02:36:01;91236.94;;;11.22;100.00
6395;BME280;3230;42.588;23.358;2023-06-01T02:38:27;91241.44;;;11.21;100.00
6395;BME280;3230;42.588;23.358;2023-06-01T02:40:52;91238.28;;;11.19;100.00
6395;BME280;3230;42.588;23.358;2023-06-01T02:43:18;91240.34;;;11.27;100.00
6395;BME280;3230;42.588;23.358;2023-06-01T02:45:44;91241.16;;;11.23;100.00
6395;BME280;3230;42.588;23.358;2023-06-01T02:48:09;91244.00;;;11.26;100.00
6395;BME280;3230;42.588;23.358;2023-06-01T02:50:35;91238.53;;;11.28;100.00
6395;BME280;3230;42.588;23.358;2023-06-01T02:53:00;91240.19;;;11.08;100.00
6395;BME280;3230;42.588;23.358;2023-06-01T02:55:26;91245.63;;;11.22;100.00
6395;BME280;3230;42.588;23.358;2023-06-01T02:57:52;91240.38;;;11.22;100.00
6395;BME280;3230;42.588;23.358;2023-06-01T03:00:17;91241.94;;;11.23;100.00
6395;BME280;3230;42.588;23.358;2023-06-01T03:02:46;91243.72;;;11.33;100.00
6395;BME280;3230;42.588;23.358;2023-06-01T03:05:12;91248.44;;;11.31;100.00
6395;BME280;3230;42.588;23.358;2023-06-01T03:07:40;91243.44;;;11.34;100.00
6395;BME280;3230;42.588;23.358;2023-06-01T03:10:07;91248.41;;;11.36;100.00
6395;BME280;3230;42.588;23.358;2023-06-01T03:12:32;91242.91;;;11.38;100.00
6395;BME280;3230;42.588;23.358;2023-06-01T03:14:58;91246.03;;;11.40;100.00
6395;BME280;3230;42.588;23.358;2023-06-01T03:17:23;91249.16;;;11.42;100.00
6395;BME280;3230;42.588;23.358;2023-06-01T03:19:49;91247.81;;;11.49;100.00
6395;BME280;3230;42.588;23.358;2023-06-01T03:22:14;91259.09;;;11.50;100.00
6395;BME280;3230;42.588;23.358;2023-06-01T03:24:40;91254.81;;;11.59;100.00
6395;BME280;3230;42.588;23.358;2023-06-01T03:27:07;91251.91;;;11.66;100.00
6395;BME280;3230;42.588;23.358;2023-06-01T03:29:32;91251.53;;;11.78;100.00
6395;BME280;3230;42.588;23.358;2023-06-01T03:31:58;91253.03;;;11.89;100.00
6395;BME280;3230;42.588;23.358;2023-06-01T03:34:24;91247.63;;;12.10;100.00
6395;BME280;3230;42.588;23.358;2023-06-01T03:36:49;91247.50;;;12.25;100.00
6395;BME280;3230;42.588;23.358;2023-06-01T03:39:15;91243.25;;;12.54;100.00
6395;BME280;3230;42.588;23.358;2023-06-01T03:41:42;91256.91;;;12.80;100.00
6395;BME280;3230;42.588;23.358;2023-06-01T03:44:09;91249.25;;;13.03;100.00
6395;BME280;3230;42.588;23.358;2023-06-01T03:46:35;91233.81;;;12.96;100.00
6395;BME280;3230;42.588;23.358;2023-06-01T03:49:00;91258.31;;;13.16;100.00
6395;BME280;3230;42.588;23.358;2023-06-01T03:51:26;91248.13;;;13.28;100.00
6395;BME280;3230;42.588;23.358;2023-06-01T03:53:51;91251.44;;;13.39;100.00
6395;BME280;3230;42.588;23.358;2023-06-01T03:56:17;91246.91;;;13.45;100.00
6395;BME280;3230;42.588;23.358;2023-06-01T03:58:45;91250.00;;;13.66;100.00
6395;BME280;3230;42.588;23.358;2023-06-01T04:01:11;91250.00;;;13.85;100.00
6395;BME280;3230;42.588;23.358;2023-06-01T04:03:38;91256.63;;;14.15;100.00
6395;BME280;3230;42.588;23.358;2023-06-01T04:06:04;91258.88;;;14.97;100.00
6395;BME280;3230;42.588;23.358;2023-06-01T04:08:37;91259.28;;;15.41;100.00
6395;BME280;3230;42.588;23.358;2023-06-01T04:11:07;91267.53;;;15.25;100.00
6395;BME280;3230;42.588;23.358;2023-06-01T04:13:32;91271.50;;;15.50;100.00
6395;BME280;3230;42.588;23.358;2023-06-01T04:15:58;91270.44;;;15.74;100.00
6395;BME280;3230;42.588;23.358;2023-06-01T04:18:23;91268.81;;;15.64;100.00
6395;BME280;3230;42.588;23.358;2023-06-01T04:20:49;91267.78;;;15.74;100.00
6395;BME280;3230;42.588;23.358;2023-06-01T04:23:14;91270.44;;;15.74;100.00
6395;BME280;3230;42.588;23.358;2023-06-01T04:25:39;91273.72;;;15.94;100.00
6395;BME280;3230;42.588;23.358;2023-06-01T04:28:09;91273.44;;;15.95;100.00
6395;BME280;3230;42.588;23.358;2023-06-01T04:30:35;91276.09;;;16.27;100.00
6395;BME280;3230;42.588;23.358;2023-06-01T04:33:01;91276.91;;;16.27;100.00
6395;BME280;3230;42.588;23.358;2023-06-01T04:35:26;91274.97;;;16.42;100.00
6395;BME280;3230;42.588;23.358;2023-06-01T04:37:52;91280.16;;;16.87;100.00
6395;BME280;3230;42.588;23.358;2023-06-01T04:40:17;91283.84;;;18.28;100.00
6395;BME280;3230;42.588;23.358;2023-06-01T04:42:44;91310.84;;;21.03;88.27
6395;BME280;3230;42.588;23.358;2023-06-01T04:45:21;91305.06;;;23.46;71.14
6395;BME280;3230;42.588;23.358;2023-06-01T04:47:47;91310.69;;;25.76;59.22
6395;BME280;3230;42.588;23.358;2023-06-01T04:50:13;91306.03;;;28.30;49.20
6395;BME280;3230;42.588;23.358;2023-06-01T04:52:41;91306.31;;;28.95;44.14
6395;BME280;3230;42.588;23.358;2023-06-01T04:55:08;91303.25;;;29.14;43.88
6395;BME280;3230;42.588;23.358;2023-06-01T04:57:34;91302.94;;;29.52;42.79
6395;BME280;3230;42.588;23.358;2023-06-01T05:00:05;91305.28;;;29.54;41.55
6395;BME280;3230;42.588;23.358;2023-06-01T05:02:36;91307.50;;;30.49;40.55
6395;BME280;3230;42.588;23.358;2023-06-01T05:05:02;91301.28;;;30.67;39.56
6395;BME280;3230;42.588;23.358;2023-06-01T05:07:29;91308.59;;;30.77;38.20
6395;BME280;3230;42.588;23.358;2023-06-01T05:09:55;91304.91;;;29.98;40.38
6395;BME280;3230;42.588;23.358;2023-06-01T05:12:21;91310.66;;;30.22;40.99
6395;BME280;3230;42.588;23.358;2023-06-01T05:14:46;91306.75;;;30.38;39.39
6395;BME280;3230;42.588;23.358;2023-06-01T05:17:12;91306.22;;;30.93;39.01
6395;BME280;3230;42.588;23.358;2023-06-01T05:19:37;91304.09;;;31.30;37.28
6395;BME280;3230;42.588;23.358;2023-06-01T05:22:02;91306.34;;;31.42;38.42
6395;BME280;3230;42.588;23.358;2023-06-01T05:24:28;91307.31;;;32.92;34.17
6395;BME280;3230;42.588;23.358;2023-06-01T05:26:53;91299.09;;;31.85;36.49
6395;BME280;3230;42.588;23.358;2023-06-01T05:29:19;91304.09;;;31.86;37.56
6395;BME280;3230;42.588;23.358;2023-06-01T05:31:45;91300.44;;;32.04;36.77
6395;BME280;3230;42.588;23.358;2023-06-01T05:34:11;91304.34;;;33.69;33.92
6395;BME280;3230;42.588;23.358;2023-06-01T05:36:36;91301.91;;;33.51;34.43
6395;BME280;3230;42.588;23.358;2023-06-01T05:39:02;91301.50;;;33.21;34.80
6395;BME280;3230;42.588;23.358;2023-06-01T05:41:27;91297.31;;;32.85;35.45
6395;BME280;3230;42.588;23.358;2023-06-01T05:43:53;91306.81;;;33.87;32.70
6395;BME280;3230;42.588;23.358;2023-06-01T05:46:18;91290.59;;;32.63;34.48
6395;BME280;3230;42.588;23.358;2023-06-01T05:48:44;91304.88;;;33.01;33.69
6395;BME280;3230;42.588;23.358;2023-06-01T05:51:09;91300.50;;;31.97;35.08
6395;BME280;3230;42.588;23.358;2023-06-01T05:53:35;91311.59;;;32.13;35.38
6395;BME280;3230;42.588;23.358;2023-06-01T05:56:01;91304.38;;;31.96;34.81
6395;BME280;3230;42.588;23.358;2023-06-01T05:58:26;91307.34;;;32.12;35.94
6395;BME280;3230;42.588;23.358;2023-06-01T06:00:51;91303.44;;;32.17;35.65
6395;BME280;3230;42.588;23.358;2023-06-01T06:03:17;91303.16;;;31.55;37.36
6395;BME280;3230;42.588;23.358;2023-06-01T06:05:43;91309.75;;;32.48;34.22
6395;BME280;3230;42.588;23.358;2023-06-01T06:08:08;91306.69;;;32.01;35.22
6395;BME280;3230;42.588;23.358;2023-06-01T06:10:35;91302.72;;;30.89;37.24
6395;BME280;3230;42.588;23.358;2023-06-01T06:13:01;91307.31;;;31.07;36.97
6395;BME280;3230;42.588;23.358;2023-06-01T06:15:26;91302.44;;;31.47;36.40
6395;BME280;3230;42.588;23.358;2023-06-01T06:17:52;91304.88;;;32.32;33.46
6395;BME280;3230;42.588;23.358;2023-06-01T06:20:17;91307.25;;;33.82;33.67
6395;BME280;3230;42.588;23.358;2023-06-01T06:22:49;91316.88;;;33.90;31.95
6395;BME280;3230;42.588;23.358;2023-06-01T06:25:15;91311.19;;;33.53;32.95
6395;BME280;3230;42.588;23.358;2023-06-01T06:27:41;91308.72;;;33.04;33.59
6395;BME280;3230;42.588;23.358;2023-06-01T06:30:06;91306.09;;;33.28;32.66
6395;BME280;3230;42.588;23.358;2023-06-01T06:32:32;91310.06;;;34.25;31.44
6395;BME280;3230;42.588;23.358;2023-06-01T06:34:58;91311.47;;;35.18;32.38
6395;BME280;3230;42.588;23.358;2023-06-01T06:37:23;91313.44;;;35.70;30.36
6395;BME280;3230;42.588;23.358;2023-06-01T06:39:49;91309.63;;;35.68;29.65
6395;BME280;3230;42.588;23.358;2023-06-01T06:42:15;91312.16;;;35.22;31.09
6395;BME280;3230;42.588;23.358;2023-06-01T06:44:40;91311.63;;;33.75;34.40
6395;BME280;3230;42.588;23.358;2023-06-01T06:47:05;91313.91;;;34.52;32.05
6395;BME280;3230;42.588;23.358;2023-06-01T06:49:31;91317.00;;;34.94;30.08
6395;BME280;3230;42.588;23.358;2023-06-01T06:51:56;91317.56;;;35.05;31.76
6395;BME280;3230;42.588;23.358;2023-06-01T06:54:22;91314.19;;;35.18;30.07
6395;BME280;3230;42.588;23.358;2023-06-01T06:56:47;91319.19;;;35.19;31.47
6395;BME280;3230;42.588;23.358;2023-06-01T06:59:13;91313.94;;;34.04;32.07
6395;BME280;3230;42.588;23.358;2023-06-01T07:01:39;91313.78;;;33.88;34.27
6395;BME280;3230;42.588;23.358;2023-06-01T07:04:06;91312.09;;;33.70;32.91
6395;BME280;3230;42.588;23.358;2023-06-01T07:06:32;91315.44;;;34.29;32.16
6395;BME280;3230;42.588;23.358;2023-06-01T07:08:58;91317.31;;;34.56;31.22
6395;BME280;3230;42.588;23.358;2023-06-01T07:11:26;91318.16;;;34.73;31.31
6395;BME280;3230;42.588;23.358;2023-06-01T07:13:53;91309.09;;;34.80;29.56
6395;BME280;3230;42.588;23.358;2023-06-01T07:16:18;91307.91;;;33.66;32.49
6395;BME280;3230;42.588;23.358;2023-06-01T07:18:44;91308.75;;;34.10;31.33
6395;BME280;3230;42.588;23.358;2023-06-01T07:21:10;91308.19;;;34.86;30.25
6395;BME280;3230;42.588;23.358;2023-06-01T07:23:35;91305.44;;;35.63;30.84
6395;BME280;3230;42.588;23.358;2023-06-01T07:26:03;91305.34;;;36.33;27.69
6395;BME280;3230;42.588;23.358;2023-06-01T07:28:29;91303.09;;;36.15;28.62
6395;BME280;3230;42.588;23.358;2023-06-01T07:30:55;91302.44;;;35.41;29.81
6395;BME280;3230;42.588;23.358;2023-06-01T07:33:21;91299.25;;;34.22;32.86
6395;BME280;3230;42.588;23.358;2023-06-01T07:35:47;91300.84;;;34.19;32.98
6395;BME280;3230;42.588;23.358;2023-06-01T07:38:13;91307.97;;;34.33;31.33
6395;BME280;3230;42.588;23.358;2023-06-01T07:40:39;91289.63;;;33.11;33.59
6395;BME280;3230;42.588;23.358;2023-06-01T07:43:05;91299.09;;;33.85;33.08
6395;BME280;3230;42.588;23.358;2023-06-01T07:45:30;91295.31;;;33.21;34.32
6395;BME280;3230;42.588;23.358;2023-06-01T07:47:56;91292.94;;;32.22;34.90
6395;BME280;3230;42.588;23.358;2023-06-01T07:50:21;91294.91;;;32.57;34.55
6395;BME280;3230;42.588;23.358;2023-06-01T07:52:53;91294.69;;;32.44;34.73
6395;BME280;3230;42.588;23.358;2023-06-01T07:55:18;91291.13;;;32.85;33.90
6395;BME280;3230;42.588;23.358;2023-06-01T07:57:44;91293.03;;;33.19;33.82
6395;BME280;3230;42.588;23.358;2023-06-01T08:00:10;91292.66;;;33.44;33.46
6395;BME280;3230;42.588;23.358;2023-06-01T08:02:38;91287.41;;;33.03;34.17
6395;BME280;3230;42.588;23.358;2023-06-01T08:05:03;91292.97;;;33.23;33.03
6395;BME280;3230;42.588;23.358;2023-06-01T08:07:30;91294.13;;;35.28;29.75
6395;BME280;3230;42.588;23.358;2023-06-01T08:09:56;91290.47;;;35.88;30.49
6395;BME280;3230;42.588;23.358;2023-06-01T08:12:23;91292.78;;;36.52;28.74
6395;BME280;3230;42.588;23.358;2023-06-01T08:14:48;91294.78;;;37.62;27.66
6395;BME280;3230;42.588;23.358;2023-06-01T08:17:14;91292.28;;;35.42;31.23
6395;BME280;3230;42.588;23.358;2023-06-01T08:19:40;91289.88;;;34.87;30.33
6395;BME280;3230;42.588;23.358;2023-06-01T08:22:07;91287.63;;;35.59;29.36
6395;BME280;3230;42.588;23.358;2023-06-01T08:24:32;91284.75;;;35.66;29.53
6395;BME280;3230;42.588;23.358;2023-06-01T08:26:58;91280.84;;;36.92;27.54
6395;BME280;3230;42.588;23.358;2023-06-01T08:29:23;91283.13;;;36.64;28.89
6395;BME280;3230;42.588;23.358;2023-06-01T08:31:49;91286.69;;;38.10;27.52
6395;BME280;3230;42.588;23.358;2023-06-01T08:34:14;91281.41;;;36.41;29.68
6395;BME280;3230;42.588;23.358;2023-06-01T08:36:40;91283.53;;;37.73;27.82
6395;BME280;3230;42.588;23.358;2023-06-01T08:39:21;91274.63;;;35.99;28.91
6395;BME280;3230;42.588;23.358;2023-06-01T08:44:38;91252.84;;;36.29;28.83
6395;BME280;3230;42.588;23.358;2023-06-01T08:47:05;91264.66;;;35.06;30.47
6395;BME280;3230;42.588;23.358;2023-06-01T08:49:32;91262.41;;;35.88;29.05
6395;BME280;3230;42.588;23.358;2023-06-01T08:52:00;91259.56;;;34.88;29.91
6395;BME280;3230;42.588;23.358;2023-06-01T08:54:27;91256.97;;;35.88;31.06
6395;BME280;3230;42.588;23.358;2023-06-01T08:56:58;91252.88;;;34.93;30.48
6395;BME280;3230;42.588;23.358;2023-06-01T08:59:24;91254.69;;;34.16;31.10
6395;BME280;3230;42.588;23.358;2023-06-01T09:01:49;91250.94;;;33.82;33.62
6395;BME280;3230;42.588;23.358;2023-06-01T09:04:15;91251.13;;;33.20;34.12
6395;BME280;3230;42.588;23.358;2023-06-01T09:06:42;91248.13;;;31.69;35.85
6395;BME280;3230;42.588;23.358;2023-06-01T09:09:08;91247.03;;;29.78;38.82
6395;BME280;3230;42.588;23.358;2023-06-01T09:11:36;91244.28;;;29.06;42.01
6395;BME280;3230;42.588;23.358;2023-06-01T09:14:19;91227.19;;;27.73;46.11
6395;BME280;3230;42.588;23.358;2023-06-01T09:16:46;91233.19;;;27.52;48.74
6395;BME280;3230;42.588;23.358;2023-06-01T09:19:11;91232.91;;;27.65;47.93
6395;BME280;3230;42.588;23.358;2023-06-01T09:21:37;91222.50;;;27.14;48.05
6395;BME280;3230;42.588;23.358;2023-06-01T09:24:20;91231.78;;;26.42;44.30
6395;BME280;3230;42.588;23.358;2023-06-01T09:26:51;91220.75;;;25.90;52.19
6395;BME280;3230;42.588;23.358;2023-06-01T09:29:17;91232.97;;;25.57;54.86
6395;BME280;3230;42.588;23.358;2023-06-01T09:31:47;91221.50;;;25.60;48.84
6395;BME280;3230;42.588;23.358;2023-06-01T09:34:13;91227.75;;;25.67;56.09
6395;BME280;3230;42.588;23.358;2023-06-01T09:36:47;91219.06;;;25.78;49.71
6395;BME280;3230;42.588;23.358;2023-06-01T09:39:15;91221.19;;;25.92;49.92
6395;BME280;3230;42.588;23.358;2023-06-01T09:44:09;91220.41;;;25.64;51.37
6395;BME280;3230;42.588;23.358;2023-06-01T09:46:48;91218.34;;;25.27;54.02
6395;BME280;3230;42.588;23.358;2023-06-01T09:49:23;91216.56;;;25.12;55.02
6395;BME280;3230;42.588;23.358;2023-06-01T09:51:51;91220.63;;;25.02;55.87
6395;BME280;3230;42.588;23.358;2023-06-01T09:54:28;91213.81;;;25.08;54.63
6395;BME280;3230;42.588;23.358;2023-06-01T09:56:54;91214.63;;;24.66;55.31
6395;BME280;3230;42.588;23.358;2023-06-01T09:59:21;91209.72;;;24.68;57.50
6395;BME280;3230;42.588;23.358;2023-06-01T10:01:51;91208.38;;;24.58;53.52
6395;BME280;3230;42.588;23.358;2023-06-01T10:04:23;91198.25;;;24.28;56.26
6395;BME280;3230;42.588;23.358;2023-06-01T10:06:50;91195.16;;;24.06;59.42
6395;BME280;3230;42.588;23.358;2023-06-01T10:09:21;91192.16;;;24.08;61.78
6395;BME280;3230;42.588;23.358;2023-06-01T10:11:49;91196.84;;;24.15;57.51
6395;BME280;3230;42.588;23.358;2023-06-01T10:14:17;91200.03;;;24.20;55.07
6395;BME280;3230;42.588;23.358;2023-06-01T10:16:43;91201.91;;;24.39;54.60
6395;BME280;3230;42.588;23.358;2023-06-01T10:19:10;91198.78;;;23.94;52.87
6395;BME280;3230;42.588;23.358;2023-06-01T10:21:36;91199.44;;;23.91;53.49
6395;BME280;3230;42.588;23.358;2023-06-01T10:24:06;91196.56;;;24.00;53.72
6395;BME280;3230;42.588;23.358;2023-06-01T10:26:43;91192.44;;;23.67;53.59
6395;BME280;3230;42.588;23.358;2023-06-01T10:29:12;91186.50;;;22.90;58.11
6395;BME280;3230;42.588;23.358;2023-06-01T10:31:42;91194.09;;;22.56;57.77
6395;BME280;3230;42.588;23.358;2023-06-01T10:34:09;91196.09;;;22.31;56.56
6395;BME280;3230;42.588;23.358;2023-06-01T10:39:32;91192.13;;;21.68;63.86
6395;BME280;3230;42.588;23.358;2023-06-01T10:52:26;91185.53;;;19.74;89.58
6395;BME280;3230;42.588;23.358;2023-06-01T10:57:43;91190.44;;;19.00;93.85
6395;BME280;3230;42.588;23.358;2023-06-01T11:00:21;91187.66;;;18.49;93.40
6395;BME280;3230;42.588;23.358;2023-06-01T11:02:56;91184.22;;;18.48;94.50
6395;BME280;3230;42.588;23.358;2023-06-01T11:05:50;91184.13;;;18.27;94.20
6395;BME280;3230;42.588;23.358;2023-06-01T11:13:35;91190.44;;;17.35;100.00
6395;BME280;3230;42.588;23.358;2023-06-01T11:18:51;91200.59;;;17.50;100.00
6395;BME280;3230;42.588;23.358;2023-06-01T11:21:35;91197.50;;;16.90;100.00
6395;BME280;3230;42.588;23.358;2023-06-01T11:24:05;91191.31;;;16.55;100.00
6395;BME280;3230;42.588;23.358;2023-06-01T11:26:34;91184.97;;;16.65;100.00
6395;BME280;3230;42.588;23.358;2023-06-01T11:29:05;91181.72;;;16.68;100.00
6395;BME280;3230;42.588;23.358;2023-06-01T11:31:46;91180.31;;;16.61;100.00
6395;BME280;3230;42.588;23.358;2023-06-01T11:34:13;91176.41;;;16.59;100.00
6395;BME280;3230;42.588;23.358;2023-06-01T11:36:41;91177.47;;;16.49;100.00
6395;BME280;3230;42.588;23.358;2023-06-01T11:39:17;91186.63;;;16.11;100.00
6395;BME280;3230;42.588;23.358;2023-06-01T11:41:43;91185.63;;;16.30;100.00
6395;BME280;3230;42.588;23.358;2023-06-01T11:44:09;91184.75;;;16.12;100.00
6395;BME280;3230;42.588;23.358;2023-06-01T11:46:35;91197.72;;;16.22;100.00
6395;BME280;3230;42.588;23.358;2023-06-01T11:49:03;91192.50;;;16.08;100.00
6395;BME280;3230;42.588;23.358;2023-06-01T11:51:31;91200.38;;;15.99;100.00
6395;BME280;3230;42.588;23.358;2023-06-01T11:53:57;91204.06;;;15.90;100.00
6395;BME280;3230;42.588;23.358;2023-06-01T11:56:32;91202.69;;;15.92;100.00
6395;BME280;3230;42.588;23.358;2023-06-01T11:59:03;91195.59;;;16.02;100.00
6395;BME280;3230;42.588;23.358;2023-06-01T12:01:45;91197.97;;;15.89;100.00
6395;BME280;3230;42.588;23.358;2023-06-01T12:04:15;91198.28;;;15.88;100.00
6395;BME280;3230;42.588;23.358;2023-06-01T12:06:41;91197.41;;;15.92;100.00
6395;BME280;3230;42.588;23.358;2023-06-01T12:09:07;91202.31;;;15.85;100.00
6395;BME280;3230;42.588;23.358;2023-06-01T12:11:33;91194.75;;;15.92;100.00
6395;BME280;3230;42.588;23.358;2023-06-01T12:14:00;91192.31;;;16.05;100.00
6395;BME280;3230;42.588;23.358;2023-06-01T12:19:17;91176.59;;;15.99;100.00
6395;BME280;3230;42.588;23.358;2023-06-01T12:21:53;91169.50;;;16.09;100.00
6395;BME280;3230;42.588;23.358;2023-06-01T12:24:33;91167.84;;;15.90;100.00
6395;BME280;3230;42.588;23.358;2023-06-01T12:27:01;91157.72;;;16.15;100.00
6395;BME280;3230;42.588;23.358;2023-06-01T12:32:02;91156.03;;;16.19;100.00
6395;BME280;3230;42.588;23.358;2023-06-01T12:34:28;91141.63;;;16.03;100.00
6395;BME280;3230;42.588;23.358;2023-06-01T12:36:54;91145.16;;;15.66;100.00
6395;BME280;3230;42.588;23.358;2023-06-01T12:39:32;91144.06;;;15.45;100.00
6395;BME280;3230;42.588;23.358;2023-06-01T12:42:01;91147.16;;;15.83;100.00
6395;BME280;3230;42.588;23.358;2023-06-01T12:44:27;91146.16;;;16.02;100.00
6395;BME280;3230;42.588;23.358;2023-06-01T12:46:56;91155.09;;;16.15;100.00
6395;BME280;3230;42.588;23.358;2023-06-01T12:49:23;91141.63;;;16.03;100.00
6395;BME280;3230;42.588;23.358;2023-06-01T12:51:49;91146.66;;;16.13;100.00
6395;BME280;3230;42.588;23.358;2023-06-01T12:54:14;91135.25;;;16.04;100.00
6395;BME280;3230;42.588;23.358;2023-06-01T12:56:40;91132.22;;;16.19;100.00
6395;BME280;3230;42.588;23.358;2023-06-01T12:59:06;91131.53;;;16.45;100.00
6395;BME280;3230;42.588;23.358;2023-06-01T13:01:32;91128.72;;;16.41;100.00
6395;BME280;3230;42.588;23.358;2023-06-01T13:03:58;91138.25;;;16.51;100.00
6395;BME280;3230;42.588;23.358;2023-06-01T13:06:23;91135.78;;;16.63;100.00
6395;BME280;3230;42.588;23.358;2023-06-01T13:08:49;91133.78;;;16.78;100.00
6395;BME280;3230;42.588;23.358;2023-06-01T13:11:15;91129.31;;;16.87;100.00
6395;BME280;3230;42.588;23.358;2023-06-01T13:13:41;91126.81;;;16.91;100.00
6395;BME280;3230;42.588;23.358;2023-06-01T13:16:06;91127.50;;;16.97;100.00
6395;BME280;3230;42.588;23.358;2023-06-01T13:18:32;91120.00;;;16.99;100.00
6395;BME280;3230;42.588;23.358;2023-06-01T13:20:58;91118.75;;;17.05;100.00
6395;BME280;3230;42.588;23.358;2023-06-01T13:23:23;91122.34;;;17.18;100.00
6395;BME280;3230;42.588;23.358;2023-06-01T13:25:49;91118.31;;;17.38;100.00
6395;BME280;3230;42.588;23.358;2023-06-01T13:28:14;91119.41;;;17.10;100.00
6395;BME280;3230;42.588;23.358;2023-06-01T13:30:40;91105.53;;;17.22;100.00
6395;BME280;3230;42.588;23.358;2023-06-01T13:33:06;91104.44;;;17.06;100.00
6395;BME280;3230;42.588;23.358;2023-06-01T13:35:32;91102.75;;;17.19;100.00
6395;BME280;3230;42.588;23.358;2023-06-01T13:37:58;91098.22;;;17.37;100.00
6395;BME280;3230;42.588;23.358;2023-06-01T13:40:24;91096.31;;;17.46;100.00
6395;BME280;3230;42.588;23.358;2023-06-01T13:42:52;91098.53;;;17.09;100.00
6395;BME280;3230;42.588;23.358;2023-06-01T13:45:21;91097.75;;;17.08;100.00
6395;BME280;3230;42.588;23.358;2023-06-01T13:47:47;91089.19;;;17.03;100.00
6395;BME280;3230;42.588;23.358;2023-06-01T13:50:13;91086.84;;;17.10;100.00